sensor_id;sensor_type;location;lat;lon;timestamp;pressure;altitude;pressure_sealevel;temperature;humidity
48848;BME280;36611;51.638;5.784;2023-04-30T00:00:37;102252.00;;;22.19;38.30
48848;BME280;36611;51.638;5.784;2023-04-30T00:03:03;102252.00;;;22.19;38.63
48848;BME280;36611;51.638;5.784;2023-04-30T00:05:30;102251.13;;;22.19;38.15
48848;BME280;36611;51.638;5.784;2023-04-30T00:07:57;102245.66;;;22.19;38.61
48848;BME280;36611;51.638;5.784;2023-04-30T00:10:23;102249.25;;;22.19;38.56
48848;BME280;36611;51.638;5.784;2023-04-30T00:12:50;102247.53;;;22.18;38.29
48848;BME280;36611;51.638;5.784;2023-04-30T00:15:16;102247.53;;;22.18;38.47
48848;BME280;36611;51.638;5.784;2023-04-30T00:17:43;102247.53;;;22.18;38.22
48848;BME280;36611;51.638;5.784;2023-04-30T00:20:10;102256.59;;;22.19;38.10
48848;BME280;36611;51.638;5.784;2023-04-30T00:22:37;102256.59;;;22.19;38.41
48848;BME280;36611;51.638;5.784;2023-04-30T00:25:04;102242.94;;;22.19;38.70
48848;BME280;36611;51.638;5.784;2023-04-30T00:27:30;102242.06;;;22.18;38.12
48848;BME280;36611;51.638;5.784;2023-04-30T00:29:57;102248.41;;;22.19;38.26
48848;BME280;36611;51.638;5.784;2023-04-30T00:32:24;102248.56;;;22.17;38.40
48848;BME280;36611;51.638;5.784;2023-04-30T00:34:51;102253.00;;;22.18;38.53
48848;BME280;36611;51.638;5.784;2023-04-30T00:37:18;102249.41;;;22.18;38.53
48848;BME280;36611;51.638;5.784;2023-04-30T00:39:44;102256.59;;;22.19;38.58
48848;BME280;36611;51.638;5.784;2023-04-30T00:42:11;102253.88;;;22.19;38.66
48848;BME280;36611;51.638;5.784;2023-04-30T00:44:38;102254.72;;;22.19;38.52
48848;BME280;36611;51.638;5.784;2023-04-30T00:47:04;102263.81;;;22.20;38.44
48848;BME280;36611;51.638;5.784;2023-04-30T00:49:31;102255.59;;;22.20;38.59
48848;BME280;36611;51.638;5.784;2023-04-30T00:51:57;102258.34;;;22.20;38.46
48848;BME280;36611;51.638;5.784;2023-04-30T00:54:24;102252.00;;;22.19;38.71
48848;BME280;36611;51.638;5.784;2023-04-30T00:56:51;102253.72;;;22.20;38.20
48848;BME280;36611;51.638;5.784;2023-04-30T00:59:18;102250.97;;;22.20;38.35
48848;BME280;36611;51.638;5.784;2023-04-30T01:01:44;102256.47;;;22.20;38.40
48848;BME280;36611;51.638;5.784;2023-04-30T01:04:12;102250.97;;;22.20;38.44
48848;BME280;36611;51.638;5.784;2023-04-30T01:06:38;102253.72;;;22.20;38.45
48848;BME280;36611;51.638;5.784;2023-04-30T01:09:06;102245.50;;;22.20;38.69
48848;BME280;36611;51.638;5.784;2023-04-30T01:12:00;102248.97;;;22.23;38.22
48848;BME280;36611;51.638;5.784;2023-04-30T01:14:44;102250.97;;;22.20;38.68
48848;BME280;36611;51.638;5.784;2023-04-30T01:17:32;102257.47;;;22.19;38.58
48848;BME280;36611;51.638;5.784;2023-04-30T01:20:00;102262.09;;;22.19;38.71
48848;BME280;36611;51.638;5.784;2023-04-30T01:28:01;102262.94;;;22.19;38.28
48848;BME280;36611;51.638;5.784;2023-04-30T01:30:30;102259.34;;;22.19;38.55
48848;BME280;36611;51.638;5.784;2023-04-30T01:32:57;102255.59;;;22.20;38.36
48848;BME280;36611;51.638;5.784;2023-04-30T01:35:38;102250.97;;;22.20;38.50
48848;BME280;36611;51.638;5.784;2023-04-30T01:43:54;102246.53;;;22.19;38.23
48848;BME280;36611;51.638;5.784;2023-04-30T01:46:27;102250.97;;;22.20;38.33
48848;BME280;36611;51.638;5.784;2023-04-30T01:49:18;102253.72;;;22.20;38.46
48848;BME280;36611;51.638;5.784;2023-04-30T01:51:52;102251.13;;;22.19;38.65
48848;BME280;36611;51.638;5.784;2023-04-30T01:54:54;102254.72;;;22.19;38.69
48848;BME280;36611;51.638;5.784;2023-04-30T01:57:32;102254.72;;;22.19;38.71
48848;BME280;36611;51.638;5.784;2023-04-30T01:59:59;102257.47;;;22.19;38.53
48848;BME280;36611;51.638;5.784;2023-04-30T02:02:26;102262.94;;;22.19;38.20
48848;BME280;36611;51.638;5.784;2023-04-30T02:04:53;102258.34;;;22.20;38.57
48848;BME280;36611;51.638;5.784;2023-04-30T02:07:31;102261.78;;;22.22;38.43
48848;BME280;36611;51.638;5.784;2023-04-30T02:10:00;102263.66;;;22.22;38.54
48848;BME280;36611;51.638;5.784;2023-04-30T02:12:27;102263.66;;;22.22;38.58
48848;BME280;36611;51.638;5.784;2023-04-30T02:14:55;102261.94;;;22.20;38.17
48848;BME280;36611;51.638;5.784;2023-04-30T02:17:22;102265.38;;;22.23;38.37
48848;BME280;36611;51.638;5.784;2023-04-30T02:19:49;102261.78;;;22.22;38.53
48848;BME280;36611;51.638;5.784;2023-04-30T02:22:15;102260.78;;;22.23;38.38
48848;BME280;36611;51.638;5.784;2023-04-30T02:24:42;102258.91;;;22.24;38.22
48848;BME280;36611;51.638;5.784;2023-04-30T02:27:09;102258.91;;;22.24;38.37
48848;BME280;36611;51.638;5.784;2023-04-30T02:29:35;102258.91;;;22.24;38.27
48848;BME280;36611;51.638;5.784;2023-04-30T02:32:02;102251.53;;;22.24;38.50
48848;BME280;36611;51.638;5.784;2023-04-30T02:34:28;102250.69;;;22.24;38.53
48848;BME280;36611;51.638;5.784;2023-04-30T02:36:55;102254.28;;;22.24;38.36
48848;BME280;36611;51.638;5.784;2023-04-30T02:39:21;102247.94;;;22.24;38.61
48848;BME280;36611;51.638;5.784;2023-04-30T02:41:48;102248.81;;;22.24;38.25
48848;BME280;36611;51.638;5.784;2023-04-30T02:44:15;102244.19;;;22.25;38.40
48848;BME280;36611;51.638;5.784;2023-04-30T02:46:41;102249.66;;;22.25;38.24
48848;BME280;36611;51.638;5.784;2023-04-30T02:49:08;102246.94;;;22.25;38.57
48848;BME280;36611;51.638;5.784;2023-04-30T02:51:34;102246.06;;;22.24;38.39
48848;BME280;36611;51.638;5.784;2023-04-30T02:54:01;102240.59;;;22.24;38.49
48848;BME280;36611;51.638;5.784;2023-04-30T02:56:27;102246.94;;;22.25;38.57
48848;BME280;36611;51.638;5.784;2023-04-30T02:58:54;102243.34;;;22.24;38.68
48848;BME280;36611;51.638;5.784;2023-04-30T03:01:21;102249.66;;;22.25;38.63
48848;BME280;36611;51.638;5.784;2023-04-30T03:03:47;102249.66;;;22.25;38.33
48848;BME280;36611;51.638;5.784;2023-04-30T03:06:14;102244.19;;;22.25;38.51
48848;BME280;36611;51.638;5.784;2023-04-30T03:08:40;102246.94;;;22.25;38.74
48848;BME280;36611;51.638;5.784;2023-04-30T03:11:07;102255.16;;;22.25;38.39
48848;BME280;36611;51.638;5.784;2023-04-30T03:13:33;102254.28;;;22.24;38.34
48848;BME280;36611;51.638;5.784;2023-04-30T03:16:01;102253.28;;;22.25;38.23
48848;BME280;36611;51.638;5.784;2023-04-30T03:18:30;102249.66;;;22.25;38.67
48848;BME280;36611;51.638;5.784;2023-04-30T03:20:56;102245.91;;;22.26;38.49
48848;BME280;36611;51.638;5.784;2023-04-30T03:23:26;102239.59;;;22.25;38.70
48848;BME280;36611;51.638;5.784;2023-04-30T03:25:52;102246.94;;;22.25;38.42
48848;BME280;36611;51.638;5.784;2023-04-30T03:28:19;102238.72;;;22.25;38.49
48848;BME280;36611;51.638;5.784;2023-04-30T03:30:46;102245.06;;;22.25;38.43
48848;BME280;36611;51.638;5.784;2023-04-30T03:33:13;102243.19;;;22.26;38.31
48848;BME280;36611;51.638;5.784;2023-04-30T03:35:39;102251.41;;;22.26;38.57
48848;BME280;36611;51.638;5.784;2023-04-30T03:38:06;102246.94;;;22.25;38.27
48848;BME280;36611;51.638;5.784;2023-04-30T03:40:33;102250.38;;;22.27;38.57
48848;BME280;36611;51.638;5.784;2023-04-30T03:42:59;102254.13;;;22.26;38.32
48848;BME280;36611;51.638;5.784;2023-04-30T03:45:26;102259.59;;;22.26;38.36
48848;BME280;36611;51.638;5.784;2023-04-30T03:47:52;102265.06;;;22.26;38.60
48848;BME280;36611;51.638;5.784;2023-04-30T03:50:19;102266.81;;;22.27;38.29
48848;BME280;36611;51.638;5.784;2023-04-30T03:52:46;102257.72;;;22.26;38.56
48848;BME280;36611;51.638;5.784;2023-04-30T03:55:14;102264.06;;;22.27;38.31
48848;BME280;36611;51.638;5.784;2023-04-30T03:57:41;102264.06;;;22.27;38.36
48848;BME280;36611;51.638;5.784;2023-04-30T04:00:09;102265.78;;;22.28;38.57
48848;BME280;36611;51.638;5.784;2023-04-30T04:02:40;102267.66;;;22.27;38.42
48848;BME280;36611;51.638;5.784;2023-04-30T04:05:09;102260.31;;;22.28;38.55
48848;BME280;36611;51.638;5.784;2023-04-30T04:07:36;102262.19;;;22.27;38.55
48848;BME280;36611;51.638;5.784;2023-04-30T04:10:03;102254.84;;;22.28;38.48
48848;BME280;36611;51.638;5.784;2023-04-30T04:12:30;102257.59;;;22.28;38.26
48848;BME280;36611;51.638;5.784;2023-04-30T04:14:57;102258.44;;;22.28;38.67
48848;BME280;36611;51.638;5.784;2023-04-30T04:17:24;102250.38;;;22.27;38.13
48848;BME280;36611;51.638;5.784;2023-04-30T04:19:50;102255.72;;;22.28;38.38
48848;BME280;36611;51.638;5.784;2023-04-30T04:22:17;102255.72;;;22.28;38.66
48848;BME280;36611;51.638;5.784;2023-04-30T04:24:45;102251.94;;;22.29;38.41
48848;BME280;36611;51.638;5.784;2023-04-30T04:27:17;102253.81;;;22.29;38.48
48848;BME280;36611;51.638;5.784;2023-04-30T04:29:45;102258.44;;;22.28;38.66
48848;BME280;36611;51.638;5.784;2023-04-30T04:32:13;102257.44;;;22.29;38.61
48848;BME280;36611;51.638;5.784;2023-04-30T04:34:41;102258.31;;;22.30;38.46
48848;BME280;36611;51.638;5.784;2023-04-30T04:37:09;102260.16;;;22.29;38.30
48848;BME280;36611;51.638;5.784;2023-04-30T04:39:35;102259.19;;;22.30;38.42
48848;BME280;36611;51.638;5.784;2023-04-30T04:42:03;102268.38;;;22.29;38.22
48848;BME280;36611;51.638;5.784;2023-04-30T04:44:31;102264.66;;;22.30;38.24
48848;BME280;36611;51.638;5.784;2023-04-30T04:46:57;102271.00;;;22.31;38.36
48848;BME280;36611;51.638;5.784;2023-04-30T04:49:24;102275.59;;;22.30;38.29
48848;BME280;36611;51.638;5.784;2023-04-30T04:51:51;102271.00;;;22.31;38.50
48848;BME280;36611;51.638;5.784;2023-04-30T04:54:17;102271.00;;;22.31;38.33
48848;BME280;36611;51.638;5.784;2023-04-30T04:56:44;102276.47;;;22.31;38.36
48848;BME280;36611;51.638;5.784;2023-04-30T04:59:11;102276.47;;;22.31;38.45
48848;BME280;36611;51.638;5.784;2023-04-30T05:01:38;102276.31;;;22.32;38.64
48848;BME280;36611;51.638;5.784;2023-04-30T05:04:05;102279.22;;;22.31;38.31
48848;BME280;36611;51.638;5.784;2023-04-30T05:06:31;102280.94;;;22.32;38.27
48848;BME280;36611;51.638;5.784;2023-04-30T05:08:58;102278.19;;;22.32;38.72
48848;BME280;36611;51.638;5.784;2023-04-30T05:11:24;102283.66;;;22.32;38.52
48848;BME280;36611;51.638;5.784;2023-04-30T05:13:51;102288.13;;;22.33;38.24
48848;BME280;36611;51.638;5.784;2023-04-30T05:16:17;102288.13;;;22.33;38.47
48848;BME280;36611;51.638;5.784;2023-04-30T05:18:44;102299.06;;;22.33;38.67
48848;BME280;36611;51.638;5.784;2023-04-30T05:21:11;102292.75;;;22.32;38.47
48848;BME280;36611;51.638;5.784;2023-04-30T05:23:37;102293.59;;;22.33;38.42
48848;BME280;36611;51.638;5.784;2023-04-30T05:26:04;102295.31;;;22.34;38.38
48848;BME280;36611;51.638;5.784;2023-04-30T05:28:30;102289.00;;;22.33;38.57
48848;BME280;36611;51.638;5.784;2023-04-30T05:30:57;102287.13;;;22.34;38.41
48848;BME280;36611;51.638;5.784;2023-04-30T05:33:23;102292.59;;;22.34;38.23
48848;BME280;36611;51.638;5.784;2023-04-30T05:35:50;102289.84;;;22.34;38.34
48848;BME280;36611;51.638;5.784;2023-04-30T05:38:16;102292.59;;;22.34;38.65
48848;BME280;36611;51.638;5.784;2023-04-30T05:40:43;102287.13;;;22.34;38.53
48848;BME280;36611;51.638;5.784;2023-04-30T05:43:09;102289.84;;;22.34;38.35
48848;BME280;36611;51.638;5.784;2023-04-30T05:45:36;102289.84;;;22.34;38.30
48848;BME280;36611;51.638;5.784;2023-04-30T05:48:03;102280.78;;;22.33;38.41
48848;BME280;36611;51.638;5.784;2023-04-30T05:50:30;102280.78;;;22.33;38.57
48848;BME280;36611;51.638;5.784;2023-04-30T05:52:56;102287.13;;;22.34;38.64
48848;BME280;36611;51.638;5.784;2023-04-30T05:55:23;102282.50;;;22.34;38.29
48848;BME280;36611;51.638;5.784;2023-04-30T05:57:49;102283.50;;;22.33;38.54
48848;BME280;36611;51.638;5.784;2023-04-30T06:00:16;102279.06;;;22.32;38.41
48848;BME280;36611;51.638;5.784;2023-04-30T06:02:42;102276.31;;;22.32;38.16
48848;BME280;36611;51.638;5.784;2023-04-30T06:05:09;102273.59;;;22.32;38.41
48848;BME280;36611;51.638;5.784;2023-04-30T06:07:36;102272.72;;;22.32;38.43
48848;BME280;36611;51.638;5.784;2023-04-30T06:10:03;102276.47;;;22.31;38.27
48848;BME280;36611;51.638;5.784;2023-04-30T06:12:29;102273.72;;;22.31;38.12
48848;BME280;36611;51.638;5.784;2023-04-30T06:14:56;102288.28;;;22.31;38.24
48848;BME280;36611;51.638;5.784;2023-04-30T06:17:23;102283.81;;;22.30;38.22
48848;BME280;36611;51.638;5.784;2023-04-30T06:19:50;102281.06;;;22.30;38.23
48848;BME280;36611;51.638;5.784;2023-04-30T06:22:16;102284.69;;;22.31;38.09
48848;BME280;36611;51.638;5.784;2023-04-30T06:24:43;102288.44;;;22.30;38.33
48848;BME280;36611;51.638;5.784;2023-04-30T06:27:09;102283.94;;;22.29;38.03
48848;BME280;36611;51.638;5.784;2023-04-30T06:29:36;102279.31;;;22.29;38.55
48848;BME280;36611;51.638;5.784;2023-04-30T06:32:02;102282.06;;;22.29;38.37
48848;BME280;36611;51.638;5.784;2023-04-30T06:34:31;102281.19;;;22.29;38.29
48848;BME280;36611;51.638;5.784;2023-04-30T06:36:57;102293.00;;;22.29;37.97
48848;BME280;36611;51.638;5.784;2023-04-30T06:39:24;102273.00;;;22.29;38.23
48848;BME280;36611;51.638;5.784;2023-04-30T06:41:50;102278.47;;;22.29;38.32
48848;BME280;36611;51.638;5.784;2023-04-30T06:44:17;102269.38;;;22.28;38.59
48848;BME280;36611;51.638;5.784;2023-04-30T06:46:44;102274.88;;;22.28;38.62
48848;BME280;36611;51.638;5.784;2023-04-30T06:49:12;102282.22;;;22.28;38.68
48848;BME280;36611;51.638;5.784;2023-04-30T06:51:40;102282.22;;;22.28;38.44
48848;BME280;36611;51.638;5.784;2023-04-30T06:54:07;102284.94;;;22.28;38.18
48848;BME280;36611;51.638;5.784;2023-04-30T06:56:33;102289.56;;;22.27;38.10
48848;BME280;36611;51.638;5.784;2023-04-30T06:59:00;102280.50;;;22.27;38.20
48848;BME280;36611;51.638;5.784;2023-04-30T07:01:26;102285.97;;;22.27;38.45
48848;BME280;36611;51.638;5.784;2023-04-30T07:03:53;102285.97;;;22.27;37.94
48848;BME280;36611;51.638;5.784;2023-04-30T07:06:20;102285.97;;;22.27;38.56
48848;BME280;36611;51.638;5.784;2023-04-30T07:08:47;102292.28;;;22.27;38.31
48848;BME280;36611;51.638;5.784;2023-04-30T07:11:14;102285.97;;;22.27;38.36
48848;BME280;36611;51.638;5.784;2023-04-30T07:13:40;102286.81;;;22.27;38.53
48848;BME280;36611;51.638;5.784;2023-04-30T07:16:07;102285.97;;;22.27;38.39
48848;BME280;36611;51.638;5.784;2023-04-30T07:18:35;102289.56;;;22.27;38.44
48848;BME280;36611;51.638;5.784;2023-04-30T07:21:03;102285.97;;;22.27;38.23
48848;BME280;36611;51.638;5.784;2023-04-30T07:23:29;102282.38;;;22.26;38.56
48848;BME280;36611;51.638;5.784;2023-04-30T07:25:56;102286.09;;;22.25;38.27
48848;BME280;36611;51.638;5.784;2023-04-30T07:28:22;102284.25;;;22.26;38.11
48848;BME280;36611;51.638;5.784;2023-04-30T07:30:49;102284.25;;;22.26;38.21
48848;BME280;36611;51.638;5.784;2023-04-30T07:33:16;102283.38;;;22.25;38.29
48848;BME280;36611;51.638;5.784;2023-04-30T07:35:43;102283.38;;;22.25;38.29
48848;BME280;36611;51.638;5.784;2023-04-30T07:38:10;102288.84;;;22.25;38.09
48848;BME280;36611;51.638;5.784;2023-04-30T07:40:36;102285.25;;;22.25;38.51
48848;BME280;36611;51.638;5.784;2023-04-30T07:43:03;102287.97;;;22.25;38.33
48848;BME280;36611;51.638;5.784;2023-04-30T07:45:30;102292.44;;;22.26;38.26
48848;BME280;36611;51.638;5.784;2023-04-30T07:47:57;102277.03;;;22.25;38.49
48848;BME280;36611;51.638;5.784;2023-04-30T07:50:24;102279.78;;;22.25;38.40
48848;BME280;36611;51.638;5.784;2023-04-30T07:52:50;102285.25;;;22.25;38.19
48848;BME280;36611;51.638;5.784;2023-04-30T07:55:17;102284.25;;;22.26;38.35
48848;BME280;36611;51.638;5.784;2023-04-30T07:57:43;102283.38;;;22.25;38.34
48848;BME280;36611;51.638;5.784;2023-04-30T08:00:10;102280.63;;;22.25;38.19
48848;BME280;36611;51.638;5.784;2023-04-30T08:02:40;102289.84;;;22.24;38.46
48848;BME280;36611;51.638;5.784;2023-04-30T08:05:09;102289.84;;;22.24;38.11
48848;BME280;36611;51.638;5.784;2023-04-30T08:07:36;102292.59;;;22.24;38.09
48848;BME280;36611;51.638;5.784;2023-04-30T08:10:03;102290.72;;;22.25;38.21
48848;BME280;36611;51.638;5.784;2023-04-30T08:12:30;102287.97;;;22.25;38.34
48848;BME280;36611;51.638;5.784;2023-04-30T08:15:04;102287.97;;;22.25;38.54
48848;BME280;36611;51.638;5.784;2023-04-30T08:17:31;102291.72;;;22.24;38.55
48848;BME280;36611;51.638;5.784;2023-04-30T08:20:02;102286.25;;;22.24;38.38
48848;BME280;36611;51.638;5.784;2023-04-30T08:22:29;102292.75;;;22.23;38.25
48848;BME280;36611;51.638;5.784;2023-04-30T08:24:56;102290.88;;;22.23;38.30
48848;BME280;36611;51.638;5.784;2023-04-30T08:27:23;102292.59;;;22.24;38.36
48848;BME280;36611;51.638;5.784;2023-04-30T08:29:49;102297.22;;;22.24;38.27
48848;BME280;36611;51.638;5.784;2023-04-30T08:32:18;102293.47;;;22.25;38.37
48848;BME280;36611;51.638;5.784;2023-04-30T08:34:45;102291.72;;;22.24;38.47
48848;BME280;36611;51.638;5.784;2023-04-30T08:37:11;102292.59;;;22.24;38.31
48848;BME280;36611;51.638;5.784;2023-04-30T08:39:38;102292.59;;;22.24;38.17
48848;BME280;36611;51.638;5.784;2023-04-30T08:42:08;102292.59;;;22.24;38.38
48848;BME280;36611;51.638;5.784;2023-04-30T08:44:38;102293.47;;;22.25;38.11
48848;BME280;36611;51.638;5.784;2023-04-30T08:47:10;102282.66;;;22.23;38.18
48848;BME280;36611;51.638;5.784;2023-04-30T08:49:40;102290.72;;;22.25;38.44
48848;BME280;36611;51.638;5.784;2023-04-30T08:52:07;102289.84;;;22.24;38.31
48848;BME280;36611;51.638;5.784;2023-04-30T08:54:35;102287.13;;;22.24;38.18
48848;BME280;36611;51.638;5.784;2023-04-30T08:57:02;102287.13;;;22.24;38.36
48848;BME280;36611;51.638;5.784;2023-04-30T08:59:28;102287.97;;;22.25;38.50
48848;BME280;36611;51.638;5.784;2023-04-30T09:01:55;102287.97;;;22.25;38.07
48848;BME280;36611;51.638;5.784;2023-04-30T09:04:22;102287.97;;;22.25;38.32
48848;BME280;36611;51.638;5.784;2023-04-30T09:06:51;102283.38;;;22.25;38.39
48848;BME280;36611;51.638;5.784;2023-04-30T09:09:37;102277.91;;;22.25;38.07
48848;BME280;36611;51.638;5.784;2023-04-30T09:12:13;102279.78;;;22.25;38.30
48848;BME280;36611;51.638;5.784;2023-04-30T09:15:00;102274.31;;;22.25;38.19
48848;BME280;36611;51.638;5.784;2023-04-30T09:17:28;102276.19;;;22.24;38.26
48848;BME280;36611;51.638;5.784;2023-04-30T09:20:11;102270.69;;;22.24;38.15
48848;BME280;36611;51.638;5.784;2023-04-30T09:22:40;102273.44;;;22.24;38.25
48848;BME280;36611;51.638;5.784;2023-04-30T09:25:07;102270.69;;;22.24;38.44
48848;BME280;36611;51.638;5.784;2023-04-30T09:27:34;102271.56;;;22.25;38.09
48848;BME280;36611;51.638;5.784;2023-04-30T09:30:02;102272.44;;;22.25;38.54
48848;BME280;36611;51.638;5.784;2023-04-30T09:32:28;102258.75;;;22.25;37.96
48848;BME280;36611;51.638;5.784;2023-04-30T09:34:55;102260.63;;;22.25;38.40
48848;BME280;36611;51.638;5.784;2023-04-30T09:37:36;102262.34;;;22.26;38.25
48848;BME280;36611;51.638;5.784;2023-04-30T09:40:04;102261.47;;;22.25;38.31
48848;BME280;36611;51.638;5.784;2023-04-30T09:42:30;102263.34;;;22.25;38.36
48848;BME280;36611;51.638;5.784;2023-04-30T09:44:57;102262.34;;;22.26;38.16
48848;BME280;36611;51.638;5.784;2023-04-30T09:47:28;102263.19;;;22.26;38.38
48848;BME280;36611;51.638;5.784;2023-04-30T09:49:55;102262.34;;;22.26;38.23
48848;BME280;36611;51.638;5.784;2023-04-30T09:52:22;102258.59;;;22.27;38.24
48848;BME280;36611;51.638;5.784;2023-04-30T09:54:48;102256.88;;;22.26;38.08
48848;BME280;36611;51.638;5.784;2023-04-30T09:57:15;102252.25;;;22.26;38.55
48848;BME280;36611;51.638;5.784;2023-04-30T09:59:45;102256.72;;;22.27;38.33
48848;BME280;36611;51.638;5.784;2023-04-30T10:02:14;102244.91;;;22.27;38.09
48848;BME280;36611;51.638;5.784;2023-04-30T10:04:43;102250.38;;;22.27;38.12
48848;BME280;36611;51.638;5.784;2023-04-30T10:07:20;102242.03;;;22.28;38.50
48848;BME280;36611;51.638;5.784;2023-04-30T10:09:53;102238.41;;;22.28;38.08
48848;BME280;36611;51.638;5.784;2023-04-30T10:12:32;102239.28;;;22.28;38.21
48848;BME280;36611;51.638;5.784;2023-04-30T10:15:12;102234.81;;;22.27;38.38
48848;BME280;36611;51.638;5.784;2023-04-30T10:17:40;102237.56;;;22.27;38.35
48848;BME280;36611;51.638;5.784;2023-04-30T10:20:11;102234.81;;;22.27;38.41
48848;BME280;36611;51.638;5.784;2023-04-30T10:22:38;102228.34;;;22.28;38.40
48848;BME280;36611;51.638;5.784;2023-04-30T10:25:07;102234.66;;;22.29;38.47
48848;BME280;36611;51.638;5.784;2023-04-30T10:27:36;102237.41;;;22.29;38.13
48848;BME280;36611;51.638;5.784;2023-04-30T10:30:05;102227.19;;;22.31;38.41
48848;BME280;36611;51.638;5.784;2023-04-30T10:32:40;102232.69;;;22.31;38.49
48848;BME280;36611;51.638;5.784;2023-04-30T10:35:15;102229.94;;;22.31;38.50
48848;BME280;36611;51.638;5.784;2023-04-30T10:37:49;102230.81;;;22.31;38.28
48848;BME280;36611;51.638;5.784;2023-04-30T10:40:18;102231.81;;;22.30;38.19
48848;BME280;36611;51.638;5.784;2023-04-30T10:42:48;102217.97;;;22.32;38.46
48848;BME280;36611;51.638;5.784;2023-04-30T10:45:15;102212.50;;;22.32;38.16
48848;BME280;36611;51.638;5.784;2023-04-30T10:47:43;102215.25;;;22.32;38.16
48848;BME280;36611;51.638;5.784;2023-04-30T10:50:12;102207.88;;;22.32;38.38
48848;BME280;36611;51.638;5.784;2023-04-30T10:52:39;102208.75;;;22.33;38.34
48848;BME280;36611;51.638;5.784;2023-04-30T10:55:07;102200.53;;;22.33;38.20
48848;BME280;36611;51.638;5.784;2023-04-30T10:57:41;102203.13;;;22.34;38.01
48848;BME280;36611;51.638;5.784;2023-04-30T11:02:46;102199.53;;;22.34;38.50
48848;BME280;36611;51.638;5.784;2023-04-30T11:05:15;102205.00;;;22.34;38.32
48848;BME280;36611;51.638;5.784;2023-04-30T11:07:57;102204.84;;;22.35;38.17
48848;BME280;36611;51.638;5.784;2023-04-30T11:10:25;102194.06;;;22.34;37.82
48848;BME280;36611;51.638;5.784;2023-04-30T11:12:54;102188.44;;;22.35;38.29
48848;BME280;36611;51.638;5.784;2023-04-30T11:15:25;102186.56;;;22.36;38.33
48848;BME280;36611;51.638;5.784;2023-04-30T11:17:56;102189.13;;;22.37;38.15
48848;BME280;36611;51.638;5.784;2023-04-30T11:20:24;102192.88;;;22.36;38.13
48848;BME280;36611;51.638;5.784;2023-04-30T11:23:09;102189.13;;;22.37;38.00
48848;BME280;36611;51.638;5.784;2023-04-30T11:25:40;102180.91;;;22.37;37.95
48848;BME280;36611;51.638;5.784;2023-04-30T11:28:22;102176.31;;;22.38;38.46
48848;BME280;36611;51.638;5.784;2023-04-30T11:30:53;102177.31;;;22.37;38.28
48848;BME280;36611;51.638;5.784;2023-04-30T11:33:21;102169.97;;;22.37;38.25
48848;BME280;36611;51.638;5.784;2023-04-30T11:35:49;102167.09;;;22.39;38.18
48848;BME280;36611;51.638;5.784;2023-04-30T11:38:38;102166.06;;;22.40;38.19
48848;BME280;36611;51.638;5.784;2023-04-30T11:41:05;102161.59;;;22.39;38.05
48848;BME280;36611;51.638;5.784;2023-04-30T11:43:33;102150.50;;;22.40;38.06
48848;BME280;36611;51.638;5.784;2023-04-30T11:46:09;102160.28;;;22.43;38.43
48848;BME280;36611;51.638;5.784;2023-04-30T11:48:41;102156.69;;;22.42;38.41
48848;BME280;36611;51.638;5.784;2023-04-30T11:51:22;102155.81;;;22.42;38.30
48848;BME280;36611;51.638;5.784;2023-04-30T11:53:52;102150.34;;;22.42;38.29
48848;BME280;36611;51.638;5.784;2023-04-30T11:56:20;102147.59;;;22.42;38.28
48848;BME280;36611;51.638;5.784;2023-04-30T11:58:48;102151.06;;;22.44;38.16
48848;BME280;36611;51.638;5.784;2023-04-30T12:01:15;102145.56;;;22.44;38.23
48848;BME280;36611;51.638;5.784;2023-04-30T12:03:47;102139.94;;;22.45;38.43
48848;BME280;36611;51.638;5.784;2023-04-30T12:06:22;102143.53;;;22.46;38.25
48848;BME280;36611;51.638;5.784;2023-04-30T12:08:51;102140.41;;;22.41;38.30
48848;BME280;36611;51.638;5.784;2023-04-30T12:11:19;102136.81;;;22.40;38.13
48848;BME280;36611;51.638;5.784;2023-04-30T12:14:04;102140.09;;;22.44;37.99
48848;BME280;36611;51.638;5.784;2023-04-30T12:16:43;102140.97;;;22.44;38.05
48848;BME280;36611;51.638;5.784;2023-04-30T12:19:17;102141.81;;;22.45;38.22
48848;BME280;36611;51.638;5.784;2023-04-30T12:21:45;102135.34;;;22.46;38.12
48848;BME280;36611;51.638;5.784;2023-04-30T12:24:16;102131.59;;;22.47;38.27
48848;BME280;36611;51.638;5.784;2023-04-30T12:26:44;102131.59;;;22.47;38.13
48848;BME280;36611;51.638;5.784;2023-04-30T12:29:15;102125.94;;;22.48;38.33
48848;BME280;36611;51.638;5.784;2023-04-30T12:31:42;102125.94;;;22.48;38.21
48848;BME280;36611;51.638;5.784;2023-04-30T12:34:12;102124.06;;;22.49;38.22
48848;BME280;36611;51.638;5.784;2023-04-30T12:36:40;102115.84;;;22.49;38.29
48848;BME280;36611;51.638;5.784;2023-04-30T12:39:15;102118.44;;;22.50;38.02
48848;BME280;36611;51.638;5.784;2023-04-30T12:41:46;102130.25;;;22.51;38.31
48848;BME280;36611;51.638;5.784;2023-04-30T12:44:23;102113.81;;;22.51;38.44
48848;BME280;36611;51.638;5.784;2023-04-30T12:46:55;102107.50;;;22.50;38.24
48848;BME280;36611;51.638;5.784;2023-04-30T12:49:26;102111.09;;;22.51;38.00
48848;BME280;36611;51.638;5.784;2023-04-30T12:52:04;102099.97;;;22.52;38.39
48848;BME280;36611;51.638;5.784;2023-04-30T12:54:35;102106.31;;;22.53;38.07
48848;BME280;36611;51.638;5.784;2023-04-30T12:57:10;102107.19;;;22.54;38.11
48848;BME280;36611;51.638;5.784;2023-04-30T13:02:09;102100.69;;;22.55;38.17
48848;BME280;36611;51.638;5.784;2023-04-30T13:04:38;102107.03;;;22.55;38.42
48848;BME280;36611;51.638;5.784;2023-04-30T13:07:05;102104.28;;;22.55;37.92
48848;BME280;36611;51.638;5.784;2023-04-30T13:09:32;102096.06;;;22.55;38.08
48848;BME280;36611;51.638;5.784;2023-04-30T13:11:59;102092.31;;;22.56;38.03
48848;BME280;36611;51.638;5.784;2023-04-30T13:14:27;102090.59;;;22.55;37.84